Time;durP1;ratioP1;P1;durP2;ratioP2;P2;SDS_P1;SDS_P2;PMS_P1;PMS_P2;Temp;Humidity;BMP_temperature;BMP_pressure;BME280_temperature;BME280_humidity;BME280_pressure;Samples;Min_cycle;Max_cycle;Signal;HPM_P1;HPM_P2
2022/08/20 00:01:00;;;;;;;;;2.33;2.00;;;;;19.06;64.81;101252.13;5076001;28;45367;-59
2022/08/20 00:03:30;;;;;;;;;3.00;2.00;;;;;19.01;64.90;101243.56;5076153;28;45323;-62
2022/08/20 00:05:59;;;;;;;;;3.67;3.67;;;;;19.04;64.51;101250.53;5058091;28;45355;-59
2022/08/20 00:08:25;;;;;;;;;3.00;2.00;;;;;19.01;64.59;101251.66;5076029;28;45231;-61
2022/08/20 00:10:52;;;;;;;;;2.33;2.33;;;;;18.97;64.69;101247.47;5076023;28;45506;-58
2022/08/20 00:13:24;;;;;;;;;2.00;2.00;;;;;18.91;64.78;101234.50;5076024;28;45489;-59
2022/08/20 00:15:50;;;;;;;;;2.00;2.00;;;;;19.00;64.91;101240.97;5075897;28;45283;-59
2022/08/20 00:18:15;;;;;;;;;3.00;3.00;;;;;18.96;64.57;101231.41;5076257;28;45666;-59
2022/08/20 00:20:47;;;;;;;;;4.00;2.00;;;;;18.98;64.48;101237.53;5075867;28;45311;-57
2022/08/20 00:23:14;;;;;;;;;4.00;3.00;;;;;18.99;64.10;101234.72;5057842;28;45356;-60
2022/08/20 00:25:41;;;;;;;;;2.00;2.00;;;;;18.97;64.17;101247.47;5076094;28;45216;-59
2022/08/20 00:28:07;;;;;;;;;5.00;3.00;;;;;18.92;64.04;101240.75;5076421;28;45433;-60
2022/08/20 00:30:34;;;;;;;;;3.33;2.33;;;;;18.92;63.94;101240.75;5076134;28;45528;-59
2022/08/20 00:33:09;;;;;;;;;3.00;3.00;;;;;18.88;63.98;101242.84;5076048;28;45425;-57
2022/08/20 00:35:39;;;;;;;;;1.67;1.67;;;;;18.87;64.19;101246.47;5076279;28;45491;-61
2022/08/20 00:38:05;;;;;;;;;4.67;2.00;;;;;18.84;63.88;101247.59;5076795;28;45326;-58
2022/08/20 00:40:37;;;;;;;;;2.00;2.00;;;;;18.81;64.41;101247.84;5076179;28;45365;-63
2022/08/20 00:43:06;;;;;;;;;5.00;4.00;;;;;18.78;64.36;101248.09;5075748;28;45335;-62
2022/08/20 00:45:33;;;;;;;;;3.67;2.00;;;;;18.74;64.33;101240.34;5076023;28;45449;-60
2022/08/20 00:47:59;;;;;;;;;4.00;3.00;;;;;18.72;64.16;101243.19;5076148;28;45640;-61
2022/08/20 00:50:31;;;;;;;;;2.00;2.00;;;;;18.74;64.48;101249.31;5074601;28;47155;-61
2022/08/20 00:52:57;;;;;;;;;5.33;2.00;;;;;18.70;64.61;101239.75;5058089;28;45390;-61
2022/08/20 00:55:25;;;;;;;;;3.33;3.00;;;;;18.68;64.49;101230.09;5075575;28;45422;-58
2022/08/20 00:57:55;;;;;;;;;3.67;3.00;;;;;18.65;64.72;101238.44;5076053;28;45279;-59
2022/08/20 01:00:28;;;;;;;;;3.67;3.00;;;;;18.62;65.15;101233.22;5060814;28;45413;-62
2022/08/20 01:02:54;;;;;;;;;3.00;3.00;;;;;18.55;65.25;101231.03;5060801;28;45370;-58
2022/08/20 01:05:22;;;;;;;;;3.00;3.00;;;;;18.55;65.41;101236.41;5079060;28;45344;-59
2022/08/20 01:07:49;;;;;;;;;4.00;2.67;;;;;18.61;65.40;101234.19;5060946;28;45304;-61
2022/08/20 01:10:18;;;;;;;;;4.00;2.00;;;;;18.60;65.16;101236.03;5078595;28;46520;-61
2022/08/20 01:12:45;;;;;;;;;3.67;3.67;;;;;18.55;65.08;101240.94;5078879;28;45409;-59
2022/08/20 01:15:15;;;;;;;;;6.33;2.67;;;;;18.55;65.28;101235.56;5078898;28;45345;-59
2022/08/20 01:17:46;;;;;;;;;2.67;1.67;;;;;18.54;65.29;101233.84;5060897;28;45335;-58
2022/08/20 01:20:25;;;;;;;;;5.67;3.00;;;;;18.52;65.22;101230.44;5078676;28;45241;-61
2022/08/20 01:23:28;;;;;;;;;6.33;2.33;;;;;18.50;65.20;101232.38;5078485;28;45394;-59
2022/08/20 01:26:05;;;;;;;;;4.67;2.67;;;;;18.47;65.11;101228.06;5060453;28;45481;-61
2022/08/20 01:29:02;;;;;;;;;2.00;2.00;;;;;18.44;65.58;101227.47;5060835;28;45448;-59
2022/08/20 01:31:33;;;;;;;;;4.00;2.33;;;;;18.44;65.57;101232.84;5077230;28;45312;-62
2022/08/20 01:34:01;;;;;;;;;5.33;3.00;;;;;18.43;65.52;101226.63;5074554;27;45504;-61
2022/08/20 01:36:49;;;;;;;;;4.00;3.00;;;;;18.40;65.47;101226.88;5098993;27;45487;-62
2022/08/20 01:39:24;;;;;;;;;3.33;3.00;;;;;18.31;65.84;101230.28;5098855;27;45508;-60
2022/08/20 01:42:08;;;;;;;;;3.00;2.00;;;;;18.30;65.93;101235.78;5098684;27;46166;-60
2022/08/20 01:44:36;;;;;;;;;2.00;2.00;;;;;18.27;65.92;101242.28;5098576;27;45310;-57
2022/08/20 01:47:19;;;;;;;;;0.00;0.00;;;;;18.25;66.33;101245.09;5098738;27;45403;-60
2022/08/20 01:49:50;;;;;;;;;2.33;2.00;;;;;18.17;66.06;101231.34;5098794;27;45233;-59
2022/08/20 01:52:29;;;;;;;;;2.00;2.00;;;;;18.17;66.22;101250.19;5097720;27;45538;-60
2022/08/20 01:54:55;;;;;;;;;13.00;3.33;;;;;18.19;66.69;101253.63;5098433;27;45366;-62
2022/08/20 01:57:25;;;;;;;;;4.00;3.00;;;;;18.14;66.63;101249.59;5098783;27;45235;-59
2022/08/20 01:59:52;;;;;;;;;5.00;3.00;;;;;18.13;66.69;101262.19;5098044;27;45628;-58
2022/08/20 02:02:18;;;;;;;;;2.00;2.00;;;;;18.11;66.84;101257.91;5098204;27;45341;-59
2022/08/20 02:04:44;;;;;;;;;2.67;2.67;;;;;18.04;66.93;101254.81;5098472;27;45366;-61
2022/08/20 02:07:20;;;;;;;;;4.00;3.00;;;;;18.01;67.22;101251.50;5097262;27;45468;-60
2022/08/20 02:09:47;;;;;;;;;2.67;2.67;;;;;17.96;67.25;101241.06;5098518;27;45560;-59
2022/08/20 02:12:16;;;;;;;;;5.33;2.00;;;;;18.01;66.99;101256.88;5097079;27;45441;-59
2022/08/20 02:14:48;;;;;;;;;2.00;2.00;;;;;17.98;66.69;101263.38;5098120;27;45530;-58
2022/08/20 02:17:14;;;;;;;;;4.00;3.00;;;;;17.95;66.82;101268.97;5099081;27;45385;-61
2022/08/20 02:19:47;;;;;;;;;2.33;2.33;;;;;17.94;66.96;101268.09;5098895;27;45586;-59
2022/08/20 02:22:33;;;;;;;;;4.67;4.00;;;;;17.92;66.75;101264.66;5098304;27;46030;-58
2022/08/20 02:24:58;;;;;;;;;2.33;2.00;;;;;17.92;66.83;101259.28;5098007;27;45319;-62
2022/08/20 02:27:24;;;;;;;;;3.00;3.00;;;;;17.83;67.28;101248.34;5080074;27;45429;-62
2022/08/20 02:29:51;;;;;;;;;2.33;2.33;;;;;17.88;67.31;101273.09;5098748;27;45369;-59
2022/08/20 02:32:17;;;;;;;;;3.67;3.00;;;;;17.82;67.12;101255.56;5098279;27;46310;-61
2022/08/20 02:34:42;;;;;;;;;5.33;2.67;;;;;17.80;67.32;101268.28;5098594;27;45685;-63
2022/08/20 02:37:08;;;;;;;;;3.00;3.00;;;;;17.74;67.63;101266.06;5098609;27;45287;-65
2022/08/20 02:39:34;;;;;;;;;4.00;1.67;;;;;17.75;67.61;101257.03;5080207;27;45293;-64
2022/08/20 02:42:02;;;;;;;;;3.00;3.00;;;;;17.71;67.82;101251.97;5098682;27;46456;-58
2022/08/20 02:44:29;;;;;;;;;5.33;4.00;;;;;17.76;67.39;101268.66;5079918;27;45378;-62
2022/08/20 02:46:55;;;;;;;;;1.00;1.00;;;;;17.73;67.52;101258.13;5098210;27;45318;-59
2022/08/20 02:49:21;;;;;;;;;4.00;2.67;;;;;17.73;67.54;101274.28;5098062;27;45408;-59
2022/08/20 02:51:46;;;;;;;;;5.67;2.00;;;;;17.66;67.82;101255.84;5097644;27;45411;-63
2022/08/20 02:54:13;;;;;;;;;5.00;2.00;;;;;17.74;67.62;101267.91;5080072;27;45460;-59
2022/08/20 02:56:39;;;;;;;;;5.33;4.00;;;;;17.68;67.78;101266.50;5097892;27;45173;-60
2022/08/20 02:59:05;;;;;;;;;4.00;3.00;;;;;17.72;67.86;101272.56;5098252;27;45577;-59
2022/08/20 03:01:30;;;;;;;;;5.00;3.00;;;;;17.71;68.00;101276.19;5098015;27;45701;-63
2022/08/20 03:03:57;;;;;;;;;5.33;3.00;;;;;17.66;67.92;101274.69;5097549;27;45738;-59
2022/08/20 03:06:24;;;;;;;;;5.00;3.00;;;;;17.58;67.67;101260.97;5097607;27;45376;-62
2022/08/20 03:08:52;;;;;;;;;2.67;2.00;;;;;17.58;68.13;101271.72;5097367;27;45629;-60
2022/08/20 03:11:19;;;;;;;;;5.67;4.00;;;;;17.60;68.31;101274.28;5097401;27;45462;-62
2022/08/20 03:13:44;;;;;;;;;5.67;1.33;;;;;17.61;68.51;101267.94;5097474;27;45378;-62
2022/08/20 03:16:11;;;;;;;;;3.33;3.33;;;;;17.58;68.49;101266.34;5097416;27;45417;-60
2022/08/20 03:18:40;;;;;;;;;4.33;3.00;;;;;17.56;68.59;101264.72;5097691;27;45532;-62
2022/08/20 03:21:06;;;;;;;;;4.00;4.00;;;;;17.55;68.58;101261.16;5096097;27;46437;-63
2022/08/20 03:23:33;;;;;;;;;2.33;2.33;;;;;17.58;68.74;101276.25;5078500;27;45374;-62
2022/08/20 03:25:59;;;;;;;;;2.00;2.00;;;;;17.57;68.74;101272.66;5078937;27;45374;-59
2022/08/20 03:28:25;;;;;;;;;2.33;2.33;;;;;17.54;68.81;101270.22;5097424;27;45544;-58
2022/08/20 03:30:52;;;;;;;;;3.00;3.00;;;;;17.51;68.69;101265.06;5095547;27;46093;-62
2022/08/20 03:33:21;;;;;;;;;5.00;3.33;;;;;17.50;69.00;101268.72;5087655;27;45864;-60
2022/08/20 03:35:47;;;;;;;;;3.67;3.00;;;;;17.50;68.88;101274.13;5077099;27;45386;-58
2022/08/20 03:38:14;;;;;;;;;5.00;3.00;;;;;17.48;69.13;101275.22;5076986;28;45473;-62
2022/08/20 03:40:40;;;;;;;;;3.33;2.67;;;;;17.44;69.19;101269.19;5057739;28;46699;-61
2022/08/20 03:43:10;;;;;;;;;3.00;3.00;;;;;17.46;69.36;101278.00;5076332;28;45288;-60
2022/08/20 03:45:38;;;;;;;;;4.33;3.00;;;;;17.39;69.63;101265.97;5076523;27;45356;-61
2022/08/20 03:48:06;;;;;;;;;3.67;2.00;;;;;17.45;69.49;101275.41;5076831;27;45454;-58
2022/08/20 03:50:33;;;;;;;;;3.67;3.00;;;;;17.41;69.69;101269.41;5075907;28;47134;-60
2022/08/20 03:52:59;;;;;;;;;3.00;2.67;;;;;17.43;69.94;101269.28;5076466;28;45315;-60
2022/08/20 03:55:27;;;;;;;;;4.00;2.67;;;;;17.39;69.64;101277.59;5076415;28;45485;-58
2022/08/20 03:57:58;;;;;;;;;1.00;1.00;;;;;17.37;69.46;101279.53;5076828;28;45575;-60
2022/08/20 04:00:45;;;;;;;;;2.33;2.33;;;;;17.35;69.70;101286.88;5076308;28;45826;-59
2022/08/20 04:03:10;;;;;;;;;3.67;3.67;;;;;17.34;69.67;101289.66;5075896;28;45410;-59
2022/08/20 04:05:39;;;;;;;;;2.00;2.00;;;;;17.31;69.82;101279.13;5076424;28;45335;-58
2022/08/20 04:08:12;;;;;;;;;2.00;2.00;;;;;17.25;69.86;101271.50;5076687;28;45527;-61
2022/08/20 04:10:37;;;;;;;;;3.00;2.67;;;;;17.29;70.00;101289.13;5075919;28;46916;-59
2022/08/20 04:13:05;;;;;;;;;5.67;3.67;;;;;17.30;69.96;101288.16;5076174;28;45457;-63
2022/08/20 04:15:33;;;;;;;;;5.67;3.33;;;;;17.30;70.02;101285.47;5058031;28;45252;-62
2022/08/20 04:17:58;;;;;;;;;2.00;2.00;;;;;17.29;70.16;101281.06;5076511;28;45384;-63
2022/08/20 04:20:25;;;;;;;;;3.00;3.00;;;;;17.27;69.91;101285.69;5075880;28;46362;-59
2022/08/20 04:22:52;;;;;;;;;3.67;3.67;;;;;17.26;69.64;101287.53;5076377;27;45366;-60
2022/08/20 04:25:18;;;;;;;;;2.67;2.67;;;;;17.19;69.66;101262.09;5076325;28;45316;-61
2022/08/20 04:27:45;;;;;;;;;4.67;4.00;;;;;17.23;69.76;101286.91;5076787;28;45298;-63
2022/08/20 04:30:13;;;;;;;;;2.67;2.67;;;;;17.20;69.58;101281.75;5076686;28;46110;-60
2022/08/20 04:32:40;;;;;;;;;4.67;3.00;;;;;17.11;69.69;101269.84;5080843;27;45342;-60
2022/08/20 04:35:07;;;;;;;;;6.00;5.00;;;;;17.15;69.44;101289.28;5098749;27;45520;-60
2022/08/20 04:37:33;;;;;;;;;4.33;2.00;;;;;17.08;69.49;101278.97;5081767;27;45572;-60
2022/08/20 04:42:50;;;;;;;;;3.33;3.33;;;;;17.00;69.73;101285.88;5100228;27;45524;-60
2022/08/20 04:45:17;;;;;;;;;3.67;3.00;;;;;16.99;69.86;101292.22;5099794;27;45272;-58
2022/08/20 04:47:42;;;;;;;;;2.00;2.00;;;;;16.88;70.12;101281.38;5099892;27;45627;-61
2022/08/20 04:50:09;;;;;;;;;6.00;4.00;;;;;16.90;70.09;101285.66;5099243;27;45330;-60
2022/08/20 04:52:36;;;;;;;;;3.67;2.00;;;;;16.83;69.65;101275.47;5099662;27;45342;-60
2022/08/20 04:55:02;;;;;;;;;4.67;2.67;;;;;16.83;69.82;101284.41;5099859;27;45318;-60
2022/08/20 04:57:28;;;;;;;;;5.00;3.00;;;;;16.82;70.09;101293.44;5099825;27;45462;-62
2022/08/20 04:59:53;;;;;;;;;6.33;3.67;;;;;16.70;70.10;101270.13;5099022;27;45648;-61
2022/08/20 05:02:20;;;;;;;;;5.67;2.67;;;;;16.80;69.85;101295.38;5099605;27;45345;-60
2022/08/20 05:04:46;;;;;;;;;5.33;3.33;;;;;16.78;69.88;101297.28;5099438;27;45298;-58
2022/08/20 05:07:17;;;;;;;;;4.33;2.33;;;;;16.77;70.15;101295.56;5099303;27;45461;-59
2022/08/20 05:09:42;;;;;;;;;4.00;3.00;;;;;16.72;69.80;101298.59;5098903;27;46170;-59
2022/08/20 05:12:09;;;;;;;;;9.00;3.00;;;;;16.73;70.26;101305.66;5081088;27;45340;-60
2022/08/20 05:14:34;;;;;;;;;3.67;3.33;;;;;16.68;70.04;101313.22;5099407;27;45408;-58
2022/08/20 05:17:04;;;;;;;;;1.33;1.33;;;;;16.73;69.68;101311.03;5098170;27;45330;-59
2022/08/20 05:19:30;;;;;;;;;2.67;2.67;;;;;16.72;70.25;101308.47;5098884;27;45369;-61
2022/08/20 05:21:56;;;;;;;;;2.67;1.00;;;;;16.74;69.87;101311.91;5080428;27;45288;-61
2022/08/20 05:24:23;;;;;;;;;4.00;2.00;;;;;16.75;70.08;101314.47;5099573;27;45292;-58
2022/08/20 05:26:48;;;;;;;;;4.67;3.00;;;;;16.75;69.97;101305.56;5099279;27;45470;-58
2022/08/20 05:29:14;;;;;;;;;2.33;2.33;;;;;16.78;70.05;101310.72;5098777;27;46118;-59
2022/08/20 05:31:40;;;;;;;;;6.67;4.00;;;;;16.79;69.87;101309.75;5098772;27;45344;-60
2022/08/20 05:34:09;;;;;;;;;5.67;2.00;;;;;16.79;69.59;101317.78;5082626;27;45516;-62
2022/08/20 05:36:35;;;;;;;;;3.00;3.00;;;;;16.80;69.97;101316.84;5079001;28;45783;-61
2022/08/20 05:39:02;;;;;;;;;8.00;3.00;;;;;16.76;69.89;101304.59;5078042;27;45335;-58
2022/08/20 05:41:28;;;;;;;;;3.33;2.67;;;;;16.81;70.07;101315.88;5078425;27;45435;-58
2022/08/20 05:43:54;;;;;;;;;5.67;3.00;;;;;16.87;70.05;101322.66;5077701;27;45315;-59
2022/08/20 05:46:21;;;;;;;;;4.00;3.00;;;;;16.90;69.97;101320.59;5060667;28;45566;-60
2022/08/20 05:48:46;;;;;;;;;4.33;2.33;;;;;16.91;69.89;101321.44;5078258;27;45474;-59
2022/08/20 05:51:11;;;;;;;;;6.00;2.67;;;;;16.93;69.84;101333.84;5077650;28;45564;-63
2022/08/20 05:53:37;;;;;;;;;5.00;3.00;;;;;16.96;69.90;101327.38;5077123;28;45483;-63
2022/08/20 05:56:03;;;;;;;;;3.00;3.00;;;;;16.96;69.85;101325.53;5078704;27;45437;-61
2022/08/20 05:58:31;;;;;;;;;2.67;2.33;;;;;17.00;69.80;101324.34;5078228;27;45261;-61
2022/08/20 06:00:58;;;;;;;;;6.67;3.67;;;;;16.98;69.95;101320.06;5078297;28;45276;-62
2022/08/20 06:06:09;;;;;;;;;4.67;4.67;;;;;17.02;70.06;101335.84;5078027;28;45390;-61
2022/08/20 06:08:35;;;;;;;;;2.33;2.33;;;;;17.05;69.96;101337.44;5077844;28;46202;-59
2022/08/20 06:11:01;;;;;;;;;4.33;4.33;;;;;17.06;69.68;101333.81;5077965;28;45390;-59
2022/08/20 06:13:27;;;;;;;;;4.00;2.00;;;;;17.00;69.77;101332.41;5078107;28;45280;-63
2022/08/20 06:15:54;;;;;;;;;3.33;3.33;;;;;17.02;69.91;101341.22;5078111;27;45324;-61
2022/08/20 06:18:19;;;;;;;;;4.33;3.00;;;;;16.96;69.78;101322.84;5077396;27;45353;-61
2022/08/20 06:20:44;;;;;;;;;5.00;3.33;;;;;17.07;69.70;101341.78;5084258;27;45280;-64
2022/08/20 06:23:11;;;;;;;;;2.67;2.00;;;;;17.03;70.04;101340.25;5087248;27;45266;-60
2022/08/20 06:25:37;;;;;;;;;6.67;3.33;;;;;17.12;69.75;101348.63;5090655;27;45751;-62
2022/08/20 06:28:03;;;;;;;;;8.00;4.33;;;;;17.11;70.07;101347.78;5097751;27;45481;-61
2022/08/20 06:30:30;;;;;;;;;5.00;3.00;;;;;17.09;69.50;101337.13;5080688;27;45441;-60
2022/08/20 06:32:55;;;;;;;;;3.33;3.00;;;;;17.14;70.09;101346.69;5059349;28;45431;-64
2022/08/20 06:35:24;;;;;;;;;2.00;1.33;;;;;17.17;69.73;101349.16;5077921;28;45421;-60
2022/08/20 06:37:51;;;;;;;;;3.33;3.00;;;;;17.19;69.66;101355.28;5084904;27;46338;-62
2022/08/20 06:40:21;;;;;;;;;8.00;3.00;;;;;17.15;69.48;101349.25;5097908;27;45315;-59
2022/08/20 06:42:48;;;;;;;;;3.00;3.00;;;;;17.16;69.43;101345.59;5097811;27;45385;-58
2022/08/20 06:45:17;;;;;;;;;4.67;3.67;;;;;17.16;69.70;101350.97;5079663;27;45244;-62
2022/08/20 06:47:45;;;;;;;;;5.33;2.33;;;;;17.10;69.49;101333.47;5097521;27;45289;-58
2022/08/20 06:50:15;;;;;;;;;5.00;4.00;;;;;17.15;69.65;101343.88;5062198;27;45374;-61
2022/08/20 06:52:41;;;;;;;;;5.00;4.00;;;;;17.17;69.89;101352.69;5097720;27;45303;-62
2022/08/20 06:55:09;;;;;;;;;3.33;3.33;;;;;17.21;69.69;101353.34;5088128;27;45368;-59
2022/08/20 06:57:36;;;;;;;;;6.00;2.67;;;;;17.21;70.00;101354.22;5075823;28;45548;-59
2022/08/20 07:00:09;;;;;;;;;3.00;3.00;;;;;17.24;69.69;101353.13;5076906;28;45402;-60
2022/08/20 07:02:35;;;;;;;;;3.67;3.67;;;;;17.26;69.47;101351.19;5077093;28;45391;-60
2022/08/20 07:05:01;;;;;;;;;4.00;4.00;;;;;17.28;69.37;101350.09;5077165;28;45526;-60
2022/08/20 07:07:26;;;;;;;;;4.67;4.67;;;;;17.31;69.27;101354.38;5077341;28;46125;-60
2022/08/20 07:10:01;;;;;;;;;6.33;4.00;;;;;17.33;69.61;101347.97;5076980;28;45315;-61
2022/08/20 07:12:27;;;;;;;;;5.00;3.00;;;;;17.45;69.61;101348.00;5077442;28;45474;-60
2022/08/20 07:14:52;;;;;;;;;3.00;3.00;;;;;17.50;69.24;101341.34;5077099;28;45488;-61
2022/08/20 07:17:17;;;;;;;;;6.00;4.00;;;;;17.55;69.19;101347.22;5076831;28;45263;-62
2022/08/20 07:19:43;;;;;;;;;4.00;4.00;;;;;17.59;69.12;101345.19;5076744;27;45209;-61
2022/08/20 07:22:09;;;;;;;;;5.00;3.00;;;;;17.60;69.10;101337.00;5058578;28;45305;-60
2022/08/20 07:24:34;;;;;;;;;6.33;3.00;;;;;17.67;68.88;101332.88;5076735;28;45370;-60
2022/08/20 07:26:59;;;;;;;;;3.00;3.00;;;;;17.76;68.96;101341.28;5076839;28;45394;-59
2022/08/20 07:32:33;;;;;;;;;3.33;3.33;;;;;17.81;68.98;101350.72;5087105;27;45318;-60
2022/08/20 07:34:54;;;;;;;;;3.00;3.00;;;;;17.92;68.42;101350.78;5097481;27;45203;-60
2022/08/20 07:37:20;;;;;;;;;4.00;4.00;;;;;17.92;68.93;101361.56;5096807;27;46089;-62
2022/08/20 07:39:48;;;;;;;;;7.33;4.00;;;;;17.92;69.00;101355.31;5097481;27;45197;-63
2022/08/20 07:42:13;;;;;;;;;4.67;4.00;;;;;18.00;69.22;101369.06;5097467;27;45414;-62
2022/08/20 07:44:39;;;;;;;;;6.33;3.00;;;;;18.12;68.32;101362.75;5097147;27;45386;-60
2022/08/20 07:47:05;;;;;;;;;5.00;5.00;;;;;18.18;68.32;101367.66;5096384;27;46309;-61
2022/08/20 07:49:30;;;;;;;;;5.00;5.00;;;;;18.23;67.93;101364.66;5096569;27;45413;-58
2022/08/20 07:51:56;;;;;;;;;3.67;3.00;;;;;18.27;67.72;101366.97;5096485;27;45419;-61
2022/08/20 07:54:21;;;;;;;;;5.67;2.33;;;;;18.24;67.85;101369.91;5078803;27;46142;-59
2022/08/20 07:56:47;;;;;;;;;6.00;4.67;;;;;18.30;67.83;101376.66;5096620;27;46134;-58
2022/08/20 07:59:13;;;;;;;;;4.00;3.00;;;;;18.30;67.69;101367.72;5078324;27;45339;-61
2022/08/20 08:01:38;;;;;;;;;3.67;2.67;;;;;18.27;67.94;101377.75;5096817;27;45388;-61
2022/08/20 08:04:03;;;;;;;;;3.00;3.00;;;;;18.24;68.35;101379.81;5096709;27;45481;-59
2022/08/20 08:06:29;;;;;;;;;4.00;4.00;;;;;18.20;68.53;101371.09;5096788;27;46060;-61
2022/08/20 08:08:57;;;;;;;;;3.33;3.00;;;;;18.32;68.26;101379.22;5081362;27;45268;-61
2022/08/20 08:11:22;;;;;;;;;4.67;3.00;;;;;18.42;67.81;101380.25;5098499;27;45414;-58
2022/08/20 08:13:47;;;;;;;;;3.00;3.00;;;;;18.45;67.61;101377.31;5100606;27;45313;-61
2022/08/20 08:16:14;;;;;;;;;4.00;3.00;;;;;18.53;67.84;101367.69;5101286;27;46009;-60
2022/08/20 08:18:45;;;;;;;;;3.00;3.00;;;;;18.48;67.89;101358.22;5100883;27;45418;-60
2022/08/20 08:21:15;;;;;;;;;5.33;3.67;;;;;18.62;67.89;101367.94;5100104;27;45306;-60
2022/08/20 08:23:43;;;;;;;;;4.67;3.00;;;;;18.63;67.74;101365.13;5100040;27;45386;-61
2022/08/20 08:26:13;;;;;;;;;2.33;2.33;;;;;18.72;67.49;101383.28;5099770;27;45746;-61
2022/08/20 08:28:39;;;;;;;;;6.67;3.33;;;;;18.79;67.42;101379.16;5094304;27;45503;-59
2022/08/20 08:31:04;;;;;;;;;4.00;4.00;;;;;18.86;67.33;101375.00;5079275;28;45279;-62
2022/08/20 08:33:31;;;;;;;;;3.67;3.00;;;;;18.93;67.46;101382.63;5080020;28;45556;-62
2022/08/20 08:36:03;;;;;;;;;5.33;4.67;;;;;19.08;67.25;101378.69;5060744;28;45444;-60
2022/08/20 08:38:31;;;;;;;;;6.00;3.00;;;;;19.46;66.32;101378.34;5077875;28;45480;-59
2022/08/20 08:41:02;;;;;;;;;5.67;3.00;;;;;19.90;64.65;101382.81;5079444;28;45429;-60
2022/08/20 08:43:28;;;;;;;;;3.67;2.00;;;;;20.24;63.44;101374.59;5079158;28;45511;-59
2022/08/20 08:45:55;;;;;;;;;5.33;3.67;;;;;20.67;62.46;101371.81;5079091;28;45448;-61
2022/08/20 08:48:26;;;;;;;;;6.00;4.00;;;;;21.12;61.23;101360.72;5079041;27;45387;-59
2022/08/20 08:50:57;;;;;;;;;9.00;4.67;;;;;21.53;59.76;101369.72;5060901;28;45532;-60
2022/08/20 08:53:36;;;;;;;;;6.50;1.50;;;;;21.83;59.02;101358.81;5079086;28;45292;-59
2022/08/20 08:56:04;;;;;;;;;3.00;3.00;;;;;22.24;56.71;101359.59;5079202;28;46267;-60
2022/08/20 08:58:32;;;;;;;;;3.25;2.00;;;;;22.74;56.65;101370.22;5078510;28;45417;-59
2022/08/20 09:01:01;;;;;;;;;9.50;2.00;;;;;23.25;56.85;101367.13;5060978;28;45410;-63
2022/08/20 09:03:31;;;;;;;;;3.00;3.00;;;;;23.48;53.48;101363.00;5079152;28;45224;-60
2022/08/20 09:06:03;;;;;;;;;3.25;3.25;;;;;23.72;52.58;101362.47;5078937;28;45480;-60
2022/08/20 09:08:49;;;;;;;;;3.00;3.00;;;;;24.14;53.88;101356.44;5060079;28;45494;-62
2022/08/20 09:11:16;;;;;;;;;3.25;1.00;;;;;24.44;52.04;101368.81;5078993;28;45458;-59
2022/08/20 09:13:43;;;;;;;;;3.00;1.75;;;;;24.64;47.98;101351.31;5077672;28;45362;-59
2022/08/20 09:16:09;;;;;;;;;3.25;2.50;;;;;24.83;50.06;101349.38;5078469;27;45323;-60
2022/08/20 09:18:35;;;;;;;;;5.80;1.60;;;;;25.21;50.45;101364.44;5078157;28;45280;-60
2022/08/20 09:21:00;;;;;;;;;2.00;2.00;;;;;25.59;48.25;101363.06;5078323;28;45492;-59
2022/08/20 09:23:26;;;;;;;;;1.75;1.75;;;;;25.88;47.58;101357.22;5078762;28;45533;-61
2022/08/20 09:25:51;;;;;;;;;1.50;1.50;;;;;25.99;47.53;101353.31;5078741;27;46211;-60
2022/08/20 09:28:17;;;;;;;;;2.00;2.00;;;;;26.16;47.59;101353.16;5078268;27;45332;-60
2022/08/20 09:30:42;;;;;;;;;3.50;2.00;;;;;26.42;45.18;101349.44;5081498;27;45256;-60
2022/08/20 09:33:07;;;;;;;;;3.00;1.50;;;;;26.47;43.81;101351.69;5098203;27;45711;-59
2022/08/20 09:35:33;;;;;;;;;4.75;1.50;;;;;26.34;46.52;101328.47;5080532;27;46753;-60
2022/08/20 09:37:59;;;;;;;;;1.25;1.25;;;;;26.57;44.95;101349.66;5099047;27;45352;-61
2022/08/20 09:40:24;;;;;;;;;1.00;1.00;;;;;26.75;43.59;101340.22;5098747;27;45349;-58
2022/08/20 09:42:50;;;;;;;;;1.75;1.75;;;;;26.95;44.07;101345.28;5097643;27;45412;-61
2022/08/20 09:45:16;;;;;;;;;2.75;1.75;;;;;27.09;44.21;101349.25;5098900;27;46563;-60
2022/08/20 09:47:41;;;;;;;;;3.00;2.00;;;;;27.15;42.46;101346.63;5099050;27;45512;-60
2022/08/20 09:50:07;;;;;;;;;1.75;1.25;;;;;27.16;40.63;101347.50;5099261;27;45651;-63
2022/08/20 09:52:36;;;;;;;;;2.40;2.40;;;;;26.87;40.00;101348.06;5099298;27;45484;-60
2022/08/20 09:55:19;;;;;;;;;2.00;2.00;;;;;27.12;42.42;101351.59;5098412;27;46242;-63
2022/08/20 09:57:46;;;;;;;;;2.60;1.00;;;;;27.31;41.69;101340.25;5098756;27;45436;-63
2022/08/20 10:00:12;;;;;;;;;2.20;2.00;;;;;27.44;41.40;101334.22;5099027;27;45266;-62
2022/08/20 10:02:37;;;;;;;;;4.00;2.50;;;;;27.50;37.89;101334.38;5099090;27;45259;-63
2022/08/20 10:05:04;;;;;;;;;2.50;2.50;;;;;27.48;40.79;101336.44;5098167;27;47065;-63
2022/08/20 10:07:29;;;;;;;;;2.20;2.00;;;;;27.38;40.53;101334.97;5098273;27;45438;-63
2022/08/20 10:09:55;;;;;;;;;4.75;2.00;;;;;27.24;40.43;101328.34;5098683;27;45425;-65
2022/08/20 10:12:21;;;;;;;;;2.00;2.00;;;;;26.93;41.58;101337.28;5097708;27;45675;-61
2022/08/20 10:14:46;;;;;;;;;5.00;2.00;;;;;26.60;42.55;101335.66;5098282;27;45960;-60
2022/08/20 10:17:11;;;;;;;;;2.25;2.00;;;;;26.28;41.13;101336.47;5098420;27;45347;-59
2022/08/20 10:19:37;;;;;;;;;3.50;1.25;;;;;26.09;42.08;101337.66;5098558;27;45771;-60
2022/08/20 10:22:02;;;;;;;;;3.00;3.00;;;;;25.67;40.84;101326.84;5098604;27;45594;-59
2022/08/20 10:24:28;;;;;;;;;4.25;2.25;;;;;25.51;42.40;101322.16;5098082;27;46047;-59
2022/08/20 10:26:58;;;;;;;;;4.75;1.00;;;;;25.35;43.08;101333.00;5098345;27;45256;-60
2022/08/20 10:29:25;;;;;;;;;4.20;2.00;;;;;24.98;43.87;101334.16;5087879;27;45453;-60
2022/08/20 10:31:52;;;;;;;;;2.00;2.00;;;;;24.63;43.17;101324.28;5077593;28;45542;-59
2022/08/20 10:34:18;;;;;;;;;5.80;2.00;;;;;24.42;44.36;101335.50;5077232;28;45533;-59
2022/08/20 10:36:43;;;;;;;;;2.75;2.75;;;;;24.26;45.07;101335.31;5077323;28;45326;-63
2022/08/20 10:39:09;;;;;;;;;1.00;1.00;;;;;24.23;45.32;101333.78;5060107;28;45309;-59
2022/08/20 10:41:35;;;;;;;;;6.25;2.00;;;;;24.20;43.91;101325.91;5077697;28;45552;-60
2022/08/20 10:44:03;;;;;;;;;3.00;1.75;;;;;24.04;44.25;101333.94;5076978;28;47001;-62
2022/08/20 10:46:29;;;;;;;;;3.60;1.00;;;;;23.78;44.11;101315.69;5058653;28;45441;-60
2022/08/20 10:48:54;;;;;;;;;2.50;1.50;;;;;23.73;44.98;101328.88;5077534;28;45345;-59
2022/08/20 10:51:20;;;;;;;;;2.50;2.50;;;;;23.65;44.51;101320.63;5077213;28;45268;-61
2022/08/20 10:53:45;;;;;;;;;3.00;1.25;;;;;23.59;44.78;101321.25;5077336;28;45900;-60
2022/08/20 10:56:11;;;;;;;;;2.00;2.00;;;;;23.55;45.10;101312.50;5077853;27;45812;-59
2022/08/20 10:58:36;;;;;;;;;4.25;4.25;;;;;23.57;45.61;101317.81;5077659;28;45388;-61
2022/08/20 11:01:02;;;;;;;;;1.00;1.00;;;;;23.50;45.32;101325.69;5059402;28;45537;-61
2022/08/20 11:03:27;;;;;;;;;3.00;3.00;;;;;23.41;46.30;101329.31;5076920;28;46413;-61
2022/08/20 11:05:52;;;;;;;;;2.25;2.25;;;;;23.31;44.67;101322.22;5075416;28;45411;-61
2022/08/20 11:08:18;;;;;;;;;1.50;1.00;;;;;23.38;45.43;101328.78;5077011;28;45437;-60
2022/08/20 11:10:43;;;;;;;;;7.75;2.75;;;;;23.20;45.01;101321.44;5077392;28;45572;-62
2022/08/20 11:13:11;;;;;;;;;1.75;1.75;;;;;23.12;45.60;101317.75;5077332;28;45462;-60
2022/08/20 11:15:40;;;;;;;;;4.75;4.00;;;;;23.25;46.16;101329.13;5076813;27;45345;-59
2022/08/20 11:18:06;;;;;;;;;2.50;1.50;;;;;23.39;45.59;101333.19;5077038;27;45358;-61
2022/08/20 11:20:32;;;;;;;;;3.75;3.75;;;;;23.46;44.36;101327.03;5077022;28;45592;-63
2022/08/20 11:22:57;;;;;;;;;2.25;2.25;;;;;23.41;43.90;101329.31;5057909;28;46265;-59
2022/08/20 11:25:23;;;;;;;;;7.75;3.00;;;;;23.30;44.55;101325.94;5058607;28;45409;-59
2022/08/20 11:27:50;;;;;;;;;3.00;3.00;;;;;23.30;44.56;101320.50;5076612;28;45302;-58
2022/08/20 11:30:28;;;;;;;;;5.50;3.00;;;;;23.43;45.36;101321.88;5076217;27;45590;-57
2022/08/20 11:32:54;;;;;;;;;5.00;4.00;;;;;23.40;43.51;101327.59;5096933;27;46711;-59
2022/08/20 11:35:22;;;;;;;;;3.75;3.00;;;;;23.38;44.63;101326.91;5096996;27;45362;-60